Time;durP1;ratioP1;P1;durP2;ratioP2;P2;SDS_P1;SDS_P2;PMS_P1;PMS_P2;Temp;Humidity;BMP_temperature;BMP_pressure;BME280_temperature;BME280_humidity;BME280_pressure;Samples;Min_cycle;Max_cycle;Signal;HPM_P1;HPM_P2
2022/01/18 00:02:25;;;;;;;95.82;23.73;;;;;;;-145.76;100.00;65039.31;4926402;28;20404;-72
2022/01/18 00:04:51;;;;;;;84.25;17.98;;;;;;;-145.76;100.00;65039.31;4927008;28;23762;-72
2022/01/18 00:07:17;;;;;;;100.75;20.08;;;;;;;-145.76;100.00;65039.31;4914119;28;20145;-73
2022/01/18 00:09:43;;;;;;;102.07;19.67;;;;;;;-145.76;100.00;65039.31;4927573;28;20047;-72
2022/01/18 00:15:15;;;;;;;92.35;20.55;;;;;;;-145.76;100.00;65039.31;4926885;28;20023;-72
2022/01/18 00:17:51;;;;;;;113.00;26.85;;;;;;;-145.76;100.00;65039.31;4921127;28;20045;-72
2022/01/18 00:20:21;;;;;;;95.47;19.35;;;;;;;-145.76;100.00;65039.31;4926990;28;20191;-72
2022/01/18 00:22:46;;;;;;;109.65;27.40;;;;;;;-145.76;100.00;65039.31;4925702;28;20138;-72
2022/01/18 00:25:11;;;;;;;90.93;21.67;;;;;;;-145.76;100.00;65039.31;4908498;28;20062;-72
2022/01/18 00:27:37;;;;;;;103.68;21.75;;;;;;;-145.76;100.00;65039.31;4924912;28;20423;-72
2022/01/18 00:33:11;;;;;;;82.88;18.65;;;;;;;-145.76;100.00;65039.31;4904426;28;20617;-73
2022/01/18 00:35:35;;;;;;;94.32;18.63;;;;;;;-145.76;100.00;65039.31;4921062;28;20055;-72
2022/01/18 00:38:02;;;;;;;128.15;33.22;;;;;;;-145.76;100.00;65039.31;4916610;28;20065;-72
2022/01/18 00:40:29;;;;;;;127.25;29.17;;;;;;;-145.76;100.00;65039.31;4925257;28;22146;-72
2022/01/18 00:42:54;;;;;;;109.80;25.40;;;;;;;-145.76;100.00;65039.31;4909843;28;20499;-72
2022/01/18 00:45:19;;;;;;;112.15;26.38;;;;;;;-145.76;100.00;65039.31;4940525;28;20134;-72
2022/01/18 00:47:46;;;;;;;112.10;25.20;;;;;;;-145.76;100.00;65039.31;4918961;28;20050;-72
2022/01/18 00:50:11;;;;;;;107.13;24.27;;;;;;;-145.76;100.00;65039.31;4916650;28;20046;-72
2022/01/18 00:52:42;;;;;;;121.45;22.73;;;;;;;-145.76;100.00;65039.31;4924929;28;20050;-72
2022/01/18 00:55:08;;;;;;;122.25;25.75;;;;;;;-145.76;100.00;65039.31;4908991;28;20109;-72
2022/01/18 00:57:33;;;;;;;120.93;27.02;;;;;;;-145.76;100.00;65039.31;4942177;28;20050;-72
2022/01/18 00:59:59;;;;;;;120.60;32.08;;;;;;;-145.76;100.00;65039.31;4910065;28;20074;-72
2022/01/18 01:02:24;;;;;;;112.03;26.63;;;;;;;-145.76;100.00;65039.31;4925826;28;20049;-73
2022/01/18 01:04:50;;;;;;;110.07;31.38;;;;;;;-145.76;100.00;65039.31;4926714;28;20046;-72
2022/01/18 01:07:18;;;;;;;108.72;25.40;;;;;;;-145.76;100.00;65039.31;4910849;28;20395;-72
2022/01/18 01:09:44;;;;;;;132.35;25.38;;;;;;;-145.76;100.00;65039.31;4909755;28;20037;-74
2022/01/18 01:12:11;;;;;;;100.47;15.57;;;;;;;-145.76;100.00;65039.31;4909868;28;20048;-72
2022/01/18 01:14:38;;;;;;;104.70;20.33;;;;;;;-145.76;100.00;65039.31;4926180;28;20027;-72
2022/01/18 01:17:37;;;;;;;111.63;20.73;;;;;;;-145.76;100.00;65039.31;4922712;28;20027;-72
2022/01/18 01:32:14;;;;;;;147.13;31.20;;;;;;;-145.76;100.00;65039.31;4915644;28;20054;-72
2022/01/18 01:36:47;;;;;;;;;;;;;;;-145.76;100.00;65039.31;4922406;28;20062;-72
2022/01/18 01:44:51;;;;;;;94.68;12.50;;;;;;;-145.76;100.00;65039.31;4919574;28;20261;-71
2022/01/18 01:47:20;;;;;;;88.80;11.35;;;;;;;-145.76;100.00;65039.31;4901885;28;20042;-71
2022/01/18 01:49:49;;;;;;;101.88;12.93;;;;;;;-145.76;100.00;65039.31;4913588;28;20054;-72
2022/01/18 01:52:14;;;;;;;89.53;13.48;;;;;;;-145.76;100.00;65039.31;4924890;28;20039;-73
2022/01/18 01:54:40;;;;;;;87.88;13.77;;;;;;;-145.76;100.00;65039.31;4908825;28;20080;-72
2022/01/18 01:57:06;;;;;;;98.45;18.92;;;;;;;-145.76;100.00;65039.31;4925021;28;20046;-73
2022/01/18 01:59:32;;;;;;;114.38;21.48;;;;;;;-145.76;100.00;65039.31;4918319;28;20038;-72
2022/01/18 02:01:57;;;;;;;99.70;21.83;;;;;;;-145.76;100.00;65039.31;4916494;28;22452;-72
2022/01/18 02:04:23;;;;;;;105.63;16.48;;;;;;;-145.76;100.00;65039.31;4925859;28;20055;-72
2022/01/18 02:06:49;;;;;;;112.75;19.33;;;;;;;-145.76;100.00;65039.31;4909064;28;20062;-73
2022/01/18 02:09:14;;;;;;;83.00;10.40;;;;;;;-145.76;100.00;65039.31;4925392;28;20074;-73
2022/01/18 02:11:40;;;;;;;85.93;11.85;;;;;;;-145.76;100.00;65039.31;4918532;28;20050;-73
2022/01/18 02:14:08;;;;;;;88.20;10.48;;;;;;;-145.76;100.00;65039.31;4916279;28;20125;-73
2022/01/18 02:22:04;;;;;;;82.50;10.82;;;;;;;-145.76;100.00;65039.31;4924595;28;20691;-73
2022/01/18 02:24:30;;;;;;;71.32;10.30;;;;;;;-145.76;100.00;65039.31;4910368;28;20062;-73
2022/01/18 02:26:55;;;;;;;65.43;8.88;;;;;;;-145.76;100.00;65039.31;4906639;28;20058;-73
2022/01/18 02:29:21;;;;;;;89.95;16.40;;;;;;;-145.76;100.00;65039.31;4922196;28;20402;-73
2022/01/18 02:31:47;;;;;;;72.82;13.05;;;;;;;-145.76;100.00;65039.31;4909584;28;20082;-73
2022/01/18 02:34:19;;;;;;;73.80;9.45;;;;;;;-145.76;100.00;65039.31;4923818;28;20507;-73
2022/01/18 02:36:45;;;;;;;63.00;9.02;;;;;;;-145.76;100.00;65039.31;4909778;28;20047;-73
2022/01/18 02:39:12;;;;;;;69.28;9.15;;;;;;;-145.76;100.00;65039.31;4924902;28;20549;-73
2022/01/18 02:41:37;;;;;;;64.60;10.50;;;;;;;-145.76;100.00;65039.31;4916032;28;20042;-73
2022/01/18 02:44:09;;;;;;;96.35;13.68;;;;;;;-145.76;100.00;65039.31;4913571;28;20054;-72
2022/01/18 02:46:35;;;;;;;63.05;9.25;;;;;;;-145.76;100.00;65039.31;4923985;28;21072;-73
2022/01/18 02:49:02;;;;;;;62.45;9.23;;;;;;;-145.76;100.00;65039.31;4908780;28;20050;-73
2022/01/18 02:51:28;;;;;;;55.55;7.13;;;;;;;-145.76;100.00;65039.31;4923823;28;20031;-73
2022/01/18 02:53:58;;;;;;;52.30;6.78;;;;;;;-145.76;100.00;65039.31;4919162;28;20058;-73
2022/01/18 02:56:26;;;;;;;60.33;10.57;;;;;;;-145.76;100.00;65039.31;4915235;28;20046;-73
2022/01/18 02:58:58;;;;;;;67.05;12.27;;;;;;;-145.76;100.00;65039.31;4925265;28;20043;-73
2022/01/18 03:04:07;;;;;;;58.17;9.95;;;;;;;-145.76;100.00;65039.31;4923637;28;20101;-73
2022/01/18 03:06:33;;;;;;;51.88;9.23;;;;;;;-145.76;100.00;65039.31;4909620;28;20383;-73
2022/01/18 03:08:58;;;;;;;45.05;8.43;;;;;;;-145.76;100.00;65039.31;4929186;28;20082;-73
2022/01/18 03:11:25;;;;;;;51.10;6.90;;;;;;;-145.76;100.00;65039.31;4927375;28;20051;-73
2022/01/18 03:13:50;;;;;;;45.88;6.43;;;;;;;-145.76;100.00;65039.31;4911467;28;20109;-73
2022/01/18 03:16:16;;;;;;;50.20;6.60;;;;;;;-145.76;100.00;65039.31;4926861;28;20073;-73
2022/01/18 03:18:41;;;;;;;41.08;5.75;;;;;;;-145.76;100.00;65039.31;4896307;28;20498;-73
2022/01/18 03:21:07;;;;;;;46.38;5.28;;;;;;;-145.76;100.00;65039.31;4928120;28;20035;-73
2022/01/18 03:23:32;;;;;;;52.65;6.13;;;;;;;-145.76;100.00;65039.31;4928922;28;20109;-73
2022/01/18 03:26:01;;;;;;;36.17;5.55;;;;;;;-145.76;100.00;65039.31;4913752;28;20073;-73
2022/01/18 03:28:27;;;;;;;35.08;5.30;;;;;;;-145.76;100.00;65039.31;4928399;28;20112;-73
2022/01/18 03:30:57;;;;;;;38.70;4.68;;;;;;;-145.76;100.00;65039.31;4895084;28;20147;-73
2022/01/18 03:33:24;;;;;;;46.38;4.95;;;;;;;-145.76;100.00;65039.31;4925361;28;20113;-72
2022/01/18 03:35:51;;;;;;;37.58;5.38;;;;;;;-145.76;100.00;65039.31;4928089;28;20077;-72
2022/01/18 03:38:18;;;;;;;33.60;4.50;;;;;;;-145.76;100.00;65039.31;4912638;28;20058;-72
2022/01/18 03:40:44;;;;;;;45.72;6.40;;;;;;;-145.76;100.00;65039.31;4926754;28;20030;-72
2022/01/18 03:43:12;;;;;;;42.97;6.00;;;;;;;-145.76;100.00;65039.31;4913067;28;20063;-71
2022/01/18 03:45:44;;;;;;;43.08;6.95;;;;;;;-145.76;100.00;65039.31;4927885;28;20057;-72
2022/01/18 03:48:22;;;;;;;41.25;6.40;;;;;;;-145.76;100.00;65039.31;4921533;28;20033;-72
2022/01/18 03:50:48;;;;;;;35.17;5.70;;;;;;;-145.76;100.00;65039.31;4932211;28;20061;-72
2022/01/18 03:53:13;;;;;;;40.88;6.35;;;;;;;-145.76;100.00;65039.31;4925994;28;20046;-72
2022/01/18 03:55:39;;;;;;;38.92;5.50;;;;;;;-145.76;100.00;65039.31;4912220;28;20093;-72
2022/01/18 03:58:04;;;;;;;35.95;5.80;;;;;;;-145.76;100.00;65039.31;4926056;28;20055;-72
2022/01/18 04:00:31;;;;;;;38.30;5.28;;;;;;;-145.76;100.00;65039.31;4917096;28;20163;-72
2022/01/18 04:02:58;;;;;;;45.35;6.35;;;;;;;-145.76;100.00;65039.31;4917089;28;20062;-72
2022/01/18 04:05:24;;;;;;;53.58;10.88;;;;;;;-145.76;100.00;65039.31;4923685;28;20054;-72
2022/01/18 04:07:50;;;;;;;56.55;9.88;;;;;;;-145.76;100.00;65039.31;4909134;28;20050;-72
2022/01/18 04:10:16;;;;;;;60.22;9.27;;;;;;;-145.76;100.00;65039.31;4925659;28;20041;-71
2022/01/18 04:12:41;;;;;;;40.60;7.20;;;;;;;-145.76;100.00;65039.31;4920168;28;20050;-73
2022/01/18 04:15:09;;;;;;;25.05;5.18;;;;;;;-145.76;100.00;65039.31;4918078;28;20047;-73
2022/01/18 04:30:50;;;;;;;48.22;11.07;;;;;;;-145.76;100.00;65039.31;4918565;28;20047;-73
2022/01/18 04:33:15;;;;;;;40.78;9.18;;;;;;;-145.76;100.00;65039.31;4918192;28;20085;-73
2022/01/18 04:35:41;;;;;;;32.25;7.35;;;;;;;-145.76;100.00;65039.31;4907948;28;20187;-73
2022/01/18 04:38:06;;;;;;;42.08;7.05;;;;;;;-145.76;100.00;65039.31;4909269;28;20047;-73
2022/01/18 04:40:33;;;;;;;37.75;6.22;;;;;;;-145.76;100.00;65039.31;4925854;28;20130;-73
2022/01/18 04:43:07;;;;;;;34.88;8.85;;;;;;;-145.76;100.00;65039.31;4910361;28;20061;-73
2022/01/18 04:48:34;;;;;;;42.53;9.02;;;;;;;-145.76;100.00;65039.31;4921649;28;20101;-73
2022/01/18 04:51:01;;;;;;;33.60;4.85;;;;;;;-145.76;100.00;65039.31;4916805;28;20178;-73
2022/01/18 04:53:31;;;;;;;21.88;3.42;;;;;;;-145.76;100.00;65039.31;4925565;28;20037;-73
2022/01/18 04:56:00;;;;;;;37.85;5.15;;;;;;;-145.76;100.00;65039.31;4908828;28;20053;-73
2022/01/18 04:58:26;;;;;;;23.42;3.63;;;;;;;-145.76;100.00;65039.31;4924311;28;20066;-72
2022/01/18 05:00:54;;;;;;;38.45;7.78;;;;;;;-145.76;100.00;65039.31;4920468;28;20134;-73
2022/01/18 05:03:20;;;;;;;39.83;8.32;;;;;;;-145.76;100.00;65039.31;4913966;28;20114;-73
2022/01/18 05:05:48;;;;;;;50.90;11.73;;;;;;;-145.76;100.00;65039.31;4909464;28;20116;-73
2022/01/18 05:08:14;;;;;;;43.22;12.23;;;;;;;-145.76;100.00;65039.31;4911662;28;20061;-73
2022/01/18 05:10:41;;;;;;;37.95;8.57;;;;;;;-145.76;100.00;65039.31;4926535;28;20049;-73
2022/01/18 05:13:17;;;;;;;35.83;5.90;;;;;;;-145.76;100.00;65039.31;4908518;28;20043;-73
2022/01/18 05:15:50;;;;;;;28.65;6.47;;;;;;;-145.76;100.00;65039.31;4924795;28;20035;-73
2022/01/18 05:21:20;;;;;;;42.63;9.18;;;;;;;-145.76;100.00;65039.31;4914980;28;20047;-73
2022/01/18 05:23:46;;;;;;;53.92;19.98;;;;;;;-145.76;100.00;65039.31;4925727;28;20039;-73
2022/01/18 05:26:11;;;;;;;27.05;6.55;;;;;;;-145.76;100.00;65039.31;4909372;28;20057;-73
2022/01/18 05:28:36;;;;;;;33.08;5.72;;;;;;;-145.76;100.00;65039.31;4925315;28;20035;-73
2022/01/18 05:31:02;;;;;;;31.15;6.15;;;;;;;-145.76;100.00;65039.31;4921193;28;20047;-73
2022/01/18 05:33:27;;;;;;;42.53;12.63;;;;;;;-145.76;100.00;65039.31;4915336;28;20055;-73
2022/01/18 05:35:54;;;;;;;31.75;8.82;;;;;;;-145.76;100.00;65039.31;4926028;28;20031;-73
2022/01/18 05:38:20;;;;;;;40.47;9.85;;;;;;;-145.76;100.00;65039.31;4910674;28;23606;-73
2022/01/18 05:40:45;;;;;;;44.03;9.60;;;;;;;-145.76;100.00;65039.31;4927383;28;20073;-72
2022/01/18 05:43:11;;;;;;;43.83;10.10;;;;;;;-145.76;100.00;65039.31;4909154;28;20113;-73
2022/01/18 05:45:36;;;;;;;40.75;10.48;;;;;;;-145.76;100.00;65039.31;4925211;28;20109;-73
2022/01/18 05:48:01;;;;;;;20.27;3.38;;;;;;;-145.76;100.00;65039.31;4926100;28;20705;-73
2022/01/18 05:50:27;;;;;;;16.88;2.67;;;;;;;-145.76;100.00;65039.31;4911549;28;20486;-73
2022/01/18 05:52:52;;;;;;;22.58;3.13;;;;;;;-145.76;100.00;65039.31;4924898;28;20914;-73
2022/01/18 05:55:18;;;;;;;16.98;2.28;;;;;;;-145.76;100.00;65039.31;4921946;28;20070;-73
2022/01/18 05:57:43;;;;;;;15.10;2.42;;;;;;;-145.76;100.00;65039.31;4924913;28;20492;-73
2022/01/18 06:00:19;;;;;;;14.38;1.73;;;;;;;-145.76;100.00;65039.31;4924269;28;20236;-73
2022/01/18 06:02:59;;;;;;;22.30;2.92;;;;;;;-145.76;100.00;65039.31;4890574;28;20202;-73
2022/01/18 06:08:10;;;;;;;18.95;2.40;;;;;;;-145.76;100.00;65039.31;4909213;28;20055;-73
2022/01/18 06:10:35;;;;;;;11.77;2.00;;;;;;;-145.76;100.00;65039.31;4924491;28;20365;-72
2022/01/18 06:13:02;;;;;;;14.40;2.90;;;;;;;-145.76;100.00;65039.31;4919603;28;20547;-72
2022/01/18 06:15:30;;;;;;;21.02;5.80;;;;;;;-145.76;100.00;65039.31;4899733;28;20089;-72
2022/01/18 06:17:56;;;;;;;24.90;4.95;;;;;;;-145.76;100.00;65039.31;4923882;28;20062;-72
2022/01/18 06:20:22;;;;;;;21.30;6.18;;;;;;;-145.76;100.00;65039.31;4908813;28;20647;-72
2022/01/18 06:22:51;;;;;;;30.27;7.95;;;;;;;-145.76;100.00;65039.31;4921438;28;20040;-72
2022/01/18 06:25:17;;;;;;;29.08;5.78;;;;;;;-145.76;100.00;65039.31;4914409;28;20055;-74
2022/01/18 06:27:43;;;;;;;21.08;5.15;;;;;;;-145.76;100.00;65039.31;4911664;28;20051;-71
2022/01/18 06:30:10;;;;;;;13.60;2.83;;;;;;;-145.76;100.00;65039.31;4921796;28;20038;-72
2022/01/18 06:32:40;;;;;;;23.63;3.88;;;;;;;-145.76;100.00;65039.31;4905619;28;20066;-73
2022/01/18 06:35:07;;;;;;;21.15;4.15;;;;;;;-145.76;100.00;65039.31;4922700;28;20056;-72
2022/01/18 06:37:32;;;;;;;25.10;5.65;;;;;;;-145.76;100.00;65039.31;4915976;28;20106;-72
2022/01/18 06:39:59;;;;;;;12.43;3.53;;;;;;;-145.76;100.00;65039.31;4893848;29;20106;-72
2022/01/18 06:42:24;;;;;;;20.45;3.42;;;;;;;-145.76;100.00;65039.31;4905213;29;20063;-73
2022/01/18 06:44:51;;;;;;;21.15;3.75;;;;;;;-145.76;100.00;65039.31;4905105;28;23674;-71
2022/01/18 06:47:16;;;;;;;19.80;3.63;;;;;;;-145.76;100.00;65039.31;4918579;28;20043;-71
2022/01/18 06:49:42;;;;;;;18.77;2.88;;;;;;;-145.76;100.00;65039.31;4897875;28;20070;-72
2022/01/18 06:52:08;;;;;;;17.77;3.28;;;;;;;-145.76;100.00;65039.31;4898558;29;20070;-72
2022/01/18 06:54:33;;;;;;;21.55;3.50;;;;;;;-145.76;100.00;65039.31;4903621;29;20114;-72
2022/01/18 06:56:59;;;;;;;21.95;3.55;;;;;;;-145.76;100.00;65039.31;4889417;28;20051;-71
2022/01/18 06:59:24;;;;;;;26.27;3.90;;;;;;;-145.76;100.00;65039.31;4907121;28;20046;-72
2022/01/18 07:01:50;;;;;;;25.02;3.63;;;;;;;-145.76;100.00;65039.31;4904903;28;20074;-72
2022/01/18 07:04:15;;;;;;;19.90;2.72;;;;;;;-145.76;100.00;65039.31;4905920;28;20550;-74
2022/01/18 07:06:41;;;;;;;24.70;3.72;;;;;;;-145.76;100.00;65039.31;4920283;28;20631;-73
2022/01/18 07:09:06;;;;;;;17.27;3.42;;;;;;;-145.76;100.00;65039.31;4889018;28;20050;-72
2022/01/18 07:11:32;;;;;;;18.20;3.15;;;;;;;-145.76;100.00;65039.31;4920817;28;20036;-72
2022/01/18 07:13:57;;;;;;;24.05;3.25;;;;;;;-145.76;100.00;65039.31;4904755;28;20584;-73
2022/01/18 07:16:23;;;;;;;19.67;3.33;;;;;;;-145.76;100.00;65039.31;4906607;29;20066;-71
2022/01/18 07:18:48;;;;;;;22.23;3.38;;;;;;;-145.76;100.00;65039.31;4905767;29;20176;-72
2022/01/18 07:21:14;;;;;;;22.23;3.38;;;;;;;-145.76;100.00;65039.31;4905642;28;20079;-72
2022/01/18 07:23:40;;;;;;;27.30;3.70;;;;;;;-145.76;100.00;65039.31;4920220;28;20119;-72
2022/01/18 07:26:05;;;;;;;21.10;3.65;;;;;;;-145.76;100.00;65039.31;4889755;28;20062;-72
2022/01/18 07:28:31;;;;;;;18.70;3.15;;;;;;;-145.76;100.00;65039.31;4902960;29;20031;-72
2022/01/18 07:30:56;;;;;;;24.40;3.65;;;;;;;-145.76;100.00;65039.31;4903958;28;20648;-72
2022/01/18 07:33:22;;;;;;;17.73;3.13;;;;;;;-145.76;100.00;65039.31;4890834;28;20729;-72
2022/01/18 07:35:48;;;;;;;20.73;3.28;;;;;;;-145.76;100.00;65039.31;4900172;29;20245;-72
2022/01/18 07:38:16;;;;;;;19.05;2.88;;;;;;;-145.76;100.00;65039.31;4901792;28;20298;-72
2022/01/18 07:40:46;;;;;;;18.05;3.88;;;;;;;-145.76;100.00;65039.31;4884784;29;25032;-71
2022/01/18 07:43:16;;;;;;;21.90;4.05;;;;;;;-145.76;100.00;65039.31;4883111;29;20039;-72
2022/01/18 07:45:43;;;;;;;19.75;3.28;;;;;;;-145.76;100.00;65039.31;4888572;28;20171;-71
2022/01/18 07:48:08;;;;;;;29.73;4.13;;;;;;;-145.76;100.00;65039.31;4916973;28;20035;-72
2022/01/18 07:50:34;;;;;;;19.30;3.92;;;;;;;-145.76;100.00;65039.31;4906339;28;20117;-72
2022/01/18 07:53:00;;;;;;;18.73;3.83;;;;;;;-145.76;100.00;65039.31;4904297;29;20032;-72
2022/01/18 07:55:25;;;;;;;15.75;3.58;;;;;;;-145.76;100.00;65039.31;4900350;28;20039;-73
2022/01/18 07:57:51;;;;;;;22.02;4.50;;;;;;;-145.76;100.00;65039.31;4911593;28;20052;-72
2022/01/18 08:00:17;;;;;;;25.40;3.83;;;;;;;-145.76;100.00;65039.31;4906547;29;20031;-72
2022/01/18 08:02:43;;;;;;;24.17;4.28;;;;;;;-145.76;100.00;65039.31;4892286;28;20172;-72
2022/01/18 08:05:09;;;;;;;26.27;4.43;;;;;;;-145.76;100.00;65039.31;4908854;29;20048;-72
2022/01/18 08:07:35;;;;;;;19.30;3.63;;;;;;;-145.76;100.00;65039.31;4901282;28;20430;-73
2022/01/18 08:10:02;;;;;;;23.88;3.90;;;;;;;-145.76;100.00;65039.31;4898255;28;20053;-72
2022/01/18 08:12:28;;;;;;;22.95;4.10;;;;;;;-145.76;100.00;65039.31;4927650;28;20030;-73
2022/01/18 08:14:59;;;;;;;24.15;5.20;;;;;;;-145.76;100.00;65039.31;4914855;28;22511;-73
2022/01/18 08:17:25;;;;;;;18.67;3.92;;;;;;;-145.76;100.00;65039.31;4927303;28;20046;-73
2022/01/18 08:19:50;;;;;;;29.02;4.32;;;;;;;-145.76;100.00;65039.31;4921153;28;20062;-73
2022/01/18 08:22:16;;;;;;;29.70;5.28;;;;;;;-145.76;100.00;65039.31;4916731;28;20089;-72
2022/01/18 08:24:41;;;;;;;24.15;4.78;;;;;;;-145.76;100.00;65039.31;4926157;28;20031;-73
2022/01/18 08:27:07;;;;;;;26.13;5.40;;;;;;;-145.76;100.00;65039.31;4911635;28;20141;-73
2022/01/18 08:29:33;;;;;;;21.85;4.72;;;;;;;-145.76;100.00;65039.31;4924611;28;20046;-73
2022/01/18 08:31:59;;;;;;;28.75;4.35;;;;;;;-145.76;100.00;65039.31;4912237;28;20069;-72
2022/01/18 08:34:24;;;;;;;23.17;4.50;;;;;;;-145.76;100.00;65039.31;4927646;28;20391;-73
2022/01/18 08:36:51;;;;;;;32.42;4.70;;;;;;;-145.76;100.00;65039.31;4925704;28;20252;-72
2022/01/18 08:39:16;;;;;;;21.67;4.95;;;;;;;-145.76;100.00;65039.31;4910483;28;20054;-72
2022/01/18 08:41:42;;;;;;;23.48;4.25;;;;;;;-145.76;100.00;65039.31;4925843;28;20475;-72
2022/01/18 08:44:07;;;;;;;24.00;3.83;;;;;;;-145.76;100.00;65039.31;4894638;28;20431;-72
2022/01/18 08:46:33;;;;;;;26.55;3.72;;;;;;;-145.76;100.00;65039.31;4921977;28;20030;-72
2022/01/18 08:48:59;;;;;;;20.63;3.50;;;;;;;-145.76;100.00;65039.31;4908998;28;20035;-72
2022/01/18 08:51:24;;;;;;;18.15;4.05;;;;;;;-145.76;100.00;65039.31;4906980;28;21760;-72
2022/01/18 08:53:50;;;;;;;23.63;4.50;;;;;;;-145.76;100.00;65039.31;4925380;28;20524;-72
2022/01/18 08:56:19;;;;;;;26.65;4.68;;;;;;;-145.76;100.00;65039.31;4910186;28;20513;-72
2022/01/18 08:58:45;;;;;;;30.67;4.18;;;;;;;-145.76;100.00;65039.31;4925999;28;20679;-71
2022/01/18 09:01:10;;;;;;;22.55;4.20;;;;;;;-145.76;100.00;65039.31;4922591;28;20034;-71
2022/01/18 09:03:36;;;;;;;21.00;3.58;;;;;;;-145.76;100.00;65039.31;4909893;28;20062;-72
2022/01/18 09:06:04;;;;;;;22.10;4.18;;;;;;;-145.76;100.00;65039.31;4924670;28;20090;-72
2022/01/18 09:08:30;;;;;;;23.48;3.85;;;;;;;-145.76;100.00;65039.31;4913457;28;20546;-72
2022/01/18 09:10:55;;;;;;;22.60;4.43;;;;;;;-145.76;100.00;65039.31;4930012;28;20037;-72
2022/01/18 09:13:24;;;;;;;19.13;3.58;;;;;;;-145.76;100.00;65039.31;4927667;28;20114;-71
2022/01/18 09:15:50;;;;;;;17.23;4.20;;;;;;;-145.76;100.00;65039.31;4896848;28;21086;-72
2022/01/18 09:18:16;;;;;;;22.95;4.78;;;;;;;-145.76;100.00;65039.31;4925456;28;20035;-72
2022/01/18 09:20:42;;;;;;;17.38;3.67;;;;;;;-145.76;100.00;65039.31;4910906;28;20552;-73
2022/01/18 09:23:07;;;;;;;20.33;4.93;;;;;;;-145.76;100.00;65039.31;4925769;28;20046;-72
2022/01/18 09:25:33;;;;;;;23.08;4.38;;;;;;;-145.76;100.00;65039.31;4922359;28;20518;-73
2022/01/18 09:27:59;;;;;;;20.85;4.68;;;;;;;-145.76;100.00;65039.31;4914670;28;20098;-71
2022/01/18 09:30:26;;;;;;;24.52;4.38;;;;;;;-145.76;100.00;65039.31;4907623;28;20090;-71
2022/01/18 09:32:55;;;;;;;17.92;4.35;;;;;;;-145.76;100.00;65039.31;4891355;28;20054;-72
2022/01/18 09:35:22;;;;;;;19.15;5.03;;;;;;;-145.76;100.00;65039.31;4922996;28;20589;-72
2022/01/18 09:37:50;;;;;;;17.20;4.15;;;;;;;-145.76;100.00;65039.31;4922394;28;20042;-71
2022/01/18 09:40:19;;;;;;;16.17;3.80;;;;;;;-145.76;100.00;65039.31;4917615;28;20779;-72
2022/01/18 09:42:51;;;;;;;19.55;3.90;;;;;;;-145.76;100.00;65039.31;4925132;28;20030;-72
2022/01/18 09:45:17;;;;;;;15.73;3.17;;;;;;;-145.76;100.00;65039.31;4909850;28;20491;-72
2022/01/18 09:47:48;;;;;;;22.80;4.00;;;;;;;-145.76;100.00;65039.31;4923817;28;20046;-73
2022/01/18 09:50:17;;;;;;;15.10;3.80;;;;;;;-145.76;100.00;65039.31;4915440;28;20049;-72
2022/01/18 09:52:43;;;;;;;15.98;3.72;;;;;;;-145.76;100.00;65039.31;4913381;28;20051;-72
2022/01/18 09:55:09;;;;;;;23.98;4.25;;;;;;;-145.76;100.00;65039.31;4920948;28;22776;-73
2022/01/18 09:57:36;;;;;;;17.50;5.15;;;;;;;-145.76;100.00;65039.31;4890192;28;20066;-72
2022/01/18 10:00:03;;;;;;;16.50;3.67;;;;;;;-145.76;100.00;65039.31;4922349;28;20035;-73
2022/01/18 10:02:29;;;;;;;25.33;3.80;;;;;;;-145.76;100.00;65039.31;4915250;28;20158;-71
2022/01/18 10:04:57;;;;;;;20.75;3.42;;;;;;;-145.76;100.00;65039.31;4912511;28;20046;-71
2022/01/18 10:07:33;;;;;;;24.85;5.80;;;;;;;-145.76;100.00;65039.31;4923813;28;20043;-71
2022/01/18 10:10:00;;;;;;;11.82;3.40;;;;;;;-145.76;100.00;65039.31;4908712;28;21710;-71
2022/01/18 10:12:26;;;;;;;24.80;3.10;;;;;;;-145.76;100.00;65039.31;4921857;28;20050;-71
2022/01/18 10:14:52;;;;;;;18.33;3.63;;;;;;;-145.76;100.00;65039.31;4922112;28;20046;-71
2022/01/18 10:17:34;;;;;;;17.65;2.95;;;;;;;-145.76;100.00;65039.31;4922955;28;20050;-71
2022/01/18 10:20:18;;;;;;;15.75;2.97;;;;;;;-145.76;100.00;65039.31;4918023;28;20030;-70
2022/01/18 10:22:48;;;;;;;19.73;3.55;;;;;;;-145.76;100.00;65039.31;4913308;28;20137;-72
2022/01/18 10:25:23;;;;;;;18.48;2.45;;;;;;;-145.76;100.00;65039.31;4921978;28;20035;-72
2022/01/18 10:27:51;;;;;;;12.15;2.17;;;;;;;-145.76;100.00;65039.31;4906763;28;20057;-72
2022/01/18 10:30:33;;;;;;;17.10;2.65;;;;;;;-145.76;100.00;65039.31;4922122;28;20683;-72
2022/01/18 10:33:01;;;;;;;14.40;2.75;;;;;;;-145.76;100.00;65039.31;4908689;28;22472;-72
2022/01/18 10:35:27;;;;;;;16.10;3.03;;;;;;;-145.76;100.00;65039.31;4923433;28;20038;-72
2022/01/18 10:37:52;;;;;;;15.68;2.75;;;;;;;-145.76;100.00;65039.31;4922704;28;20042;-71
2022/01/18 10:40:18;;;;;;;15.02;3.08;;;;;;;-145.76;100.00;65039.31;4909019;28;20058;-71
2022/01/18 10:42:50;;;;;;;14.95;3.40;;;;;;;-145.76;100.00;65039.31;4924071;28;20042;-72
2022/01/18 10:45:31;;;;;;;14.80;3.58;;;;;;;-145.76;100.00;65039.31;4908692;28;20065;-73
2022/01/18 10:48:01;;;;;;;18.40;3.03;;;;;;;-145.76;100.00;65039.31;4923461;28;20165;-72
2022/01/18 10:50:33;;;;;;;15.75;3.00;;;;;;;-145.76;100.00;65039.31;4916116;28;20047;-73
2022/01/18 10:53:14;;;;;;;16.48;2.92;;;;;;;-145.76;100.00;65039.31;4912301;28;20059;-72
2022/01/18 10:55:40;;;;;;;16.70;2.70;;;;;;;-145.76;100.00;65039.31;4924030;28;20031;-73
2022/01/18 10:58:14;;;;;;;15.40;3.35;;;;;;;-145.76;100.00;65039.31;4905976;28;20377;-73
2022/01/18 11:00:40;;;;;;;20.15;3.28;;;;;;;-145.76;100.00;65039.31;4922501;28;20023;-73
2022/01/18 11:03:07;;;;;;;11.82;3.20;;;;;;;-145.76;100.00;65039.31;4906964;28;20055;-72
2022/01/18 11:05:35;;;;;;;17.27;3.88;;;;;;;-145.76;100.00;65039.31;4903473;28;20157;-72
2022/01/18 11:08:04;;;;;;;18.60;4.03;;;;;;;-145.76;100.00;65039.31;4919754;28;20467;-72
2022/01/18 11:10:39;;;;;;;19.23;3.30;;;;;;;-145.76;100.00;65039.31;4910728;28;20655;-72
2022/01/18 11:13:10;;;;;;;16.73;4.28;;;;;;;-145.76;100.00;65039.31;4920779;28;20041;-72
2022/01/18 11:15:39;;;;;;;15.98;3.92;;;;;;;-145.76;100.00;65039.31;4912065;28;20237;-72
2022/01/18 11:18:08;;;;;;;20.27;4.18;;;;;;;-145.76;100.00;65039.31;4918825;28;20035;-72
2022/01/18 11:20:42;;;;;;;14.93;3.33;;;;;;;-145.76;100.00;65039.31;4917628;28;20535;-72
2022/01/18 11:23:08;;;;;;;24.00;4.45;;;;;;;-145.76;100.00;65039.31;4913779;28;20057;-72
2022/01/18 11:25:36;;;;;;;17.88;4.22;;;;;;;-145.76;100.00;65039.31;4937908;28;20039;-72
2022/01/18 11:28:04;;;;;;;22.88;4.13;;;;;;;-145.76;100.00;65039.31;4908367;28;20137;-73
2022/01/18 11:30:34;;;;;;;17.42;4.30;;;;;;;-145.76;100.00;65039.31;4927065;28;20041;-72
2022/01/18 11:33:02;;;;;;;22.05;4.70;;;;;;;-145.76;100.00;65039.31;4909571;28;20112;-72
2022/01/18 11:35:45;;;;;;;19.52;5.22;;;;;;;-145.76;100.00;65039.31;4927430;28;20857;-72
2022/01/18 11:38:17;;;;;;;21.25;4.55;;;;;;;-145.76;100.00;65039.31;4924503;28;20626;-72
2022/01/18 11:41:02;;;;;;;18.58;5.05;;;;;;;-145.76;100.00;65039.31;4913316;28;21131;-72
2022/01/18 11:43:42;;;;;;;21.30;4.68;;;;;;;-145.76;100.00;65039.31;4940603;28;20030;-72
2022/01/18 11:46:24;;;;;;;20.30;4.70;;;;;;;-145.76;100.00;65039.31;4909063;28;20059;-72
2022/01/18 11:49:01;;;;;;;20.02;4.53;;;;;;;-145.76;100.00;65039.31;4910236;28;20121;-72
2022/01/18 11:51:48;;;;;;;24.15;5.05;;;;;;;-145.76;100.00;65039.31;4911937;28;20059;-72
2022/01/18 11:57:21;;;;;;;17.58;3.83;;;;;;;-145.76;100.00;65039.31;4910688;28;20054;-72
2022/01/18 11:59:52;;;;;;;24.02;3.85;;;;;;;-145.76;100.00;65039.31;4941185;28;20041;-72
2022/01/18 12:02:28;;;;;;;16.70;3.60;;;;;;;-145.76;100.00;65039.31;4924704;28;20055;-72